Pagrindinis puslapis
METAR-TAF:

METAR-TAF

Oro uostai :

Hamilton, Ohajas, Jungtinės Amerikos Valstijos

platuma: 39-21-41N, ilguma: 084-31-15W, Aukštis: 193 m

Dabartinis oras

Ataskaita buvo paskelbta 39 minutes, ne 11:53 UTC
Vėjas 8 kt iš Vakarų/Pietvakarių
Temperatūra 3°C
Drėgmė 87%
Slėgis 1013 hPa
Matomumas: 16.1 km
Apsiniaukę ne aukštis 1400 ft

METAR: KHAO 251153Z AUTO 25008KT 10SM OVC014 03/01 A2992 RMK AO2 SLP138 60001 70030 T00280011 10039 20028 53010

Laikas: 07:32 (12:32 UTC)


TAF: trūkstamas

Orai ataskaitas ir orų prognozės (METAR, TAF).

turimą stotys yra geltonos ir raudonos taškus žemėlapyje.

Perkelti pele per norėdami pamatyti stoties vardą.

Tada spustelėkite, norėdami matyti oro stebėjimo ir prognozės.

Norėdami pakeisti žemėlapį: spustelėkite ant žalios mygtukų su juodo kryžiaus žemyn,; žalią mygtuką su brūkšneliu, jei norite nutolinti; arba žalių rodyklių gretimoms žemėlapius.


METAR-TAF: